Flight Track Log - Related Links

Times and Time Zones

All times are in EDT time to prevent confusion due to time zone crossing. See the AWE1454 flight status page for this flight to view local times or setup timezone preferences in your user account.

Time Position Orientation Groundspeed Altitude Reporting Facility
EDT Latitude Longitude Course Direction KTS MPH feet Rate Location/Type
Thu 04:28:22 PM 39.8667 -75.2833 37° Northeast 141 162 800  Level Philadelphia TRACON
Thu 04:29:10 PM 39.8333 -75.3000 201° Southwest 185 213 1,800 1,872 Climbing Philadelphia TRACON
Thu 04:30:00 PM 39.7958 -74.7621 105° East  Level FlightAware
Thu 04:30:11 PM 39.7833 -75.3500 218° Southwest 220 253 4,200  Level Philadelphia TRACON
Thu 04:31:00 PM 39.8438 -74.6396 37° Northeast  Level FlightAware
Thu 04:31:11 PM 39.7333 -75.3833 207° Southwest 236 272 7,200  Level Philadelphia TRACON
Thu 04:32:00 PM 39.9468 -74.5532 37° Northeast  Level FlightAware
Thu 04:32:11 PM 39.7000 -75.3000 117° Southeast 316 364 9,400  Level Philadelphia TRACON
Thu 04:33:00 PM 40.0464 -74.4536 37° Northeast  Level FlightAware
Thu 04:33:11 PM 39.7167 -75.1833 79° East 356 410 11,200  Level Philadelphia TRACON
Thu 04:35:04 PM 39.7581 -74.9483 77° East 383 441 12,000 586 Climbing New Center
Thu 04:36:05 PM 39.7794 -74.8172 78° East 369 425 12,900 1,513 Climbing New Center
Thu 04:37:03 PM 39.8192 -74.6869 68° East 369 425 15,000 2,050 Climbing New Center
Thu 04:38:05 PM 39.9139 -74.5978 36° Northeast 383 441 17,000 1,869 Climbing New Center
Thu 04:39:05 PM 40.0086 -74.5053 37° Northeast 390 449 18,800 1,831 Climbing New Center
Thu 04:40:03 PM 40.1117 -74.4131 34° Northeast 427 491 20,600 1,881 Climbing New Center
Thu 04:41:03 PM 40.2206 -74.3211 33° Northeast 453 521 22,500 1,700 Climbing New Center
Thu 04:42:03 PM 40.3317 -74.2286 32° Northeast 465 535 24,000 1,537 Climbing New Center
Thu 04:43:04 PM 40.4364 -74.1414 32° Northeast 490 564 25,600 1,388 Climbing New Center
Thu 04:44:04 PM 40.5539 -74.0433 32° Northeast 490 564 26,800 1,091 Climbing New Center
Thu 04:45:05 PM 40.6733 -73.9422 33° Northeast 496 571 27,800 1,008 Climbing New Center
Thu 04:46:03 PM 40.7989 -73.8439 31° Northeast 508 585 28,800 1,271 Climbing New Center
Thu 04:48:28 PM 41.1283 -73.6939 19° North 517 595 32,100 1,229 Climbing Boston Center
Thu 04:49:28 PM 41.2606 -73.6219 22° Northeast 517 595 33,000 281 Climbing Boston Center
Thu 04:51:00 PM 41.4119 -73.5519 353° North  Level FlightAware
Thu 04:51:40 PM 41.5428 -73.5356 353° North 511 588 33,000  Level Boston Center
Thu 04:52:40 PM 41.7175 -73.5692 352° North 496 571 33,000  Level Boston Center
Thu 04:53:40 PM 41.8547 -73.6022 350° North 496 571 33,000  Level Boston Center
Thu 04:54:52 PM 41.9919 -73.6356 350° North 502 578 33,000 -773 Level Boston Center
Thu 04:55:52 PM 42.1378 -73.6411 358° North 502 578 31,300 -2,550 Descending Boston Center
Thu 04:56:52 PM 42.2847 -73.5150 32° Northeast 489 563 27,900 -2,800 Descending Boston Center
Thu 04:57:52 PM 42.3508 -73.3617 60° Northeast 443 510 25,700 -2,050 Descending Boston Center
Thu 04:58:52 PM 42.4208 -73.1994 60° Northeast 477 549 23,800 -1,850 Descending Boston Center
Thu 04:59:52 PM 42.4822 -73.0425 62° Northeast 466 536 22,000 -1,800 Descending Boston Center
Thu 05:00:52 PM 42.5433 -72.8939 61° Northeast 455 524 20,200 -1,900 Descending Boston Center
Thu 05:01:52 PM 42.6000 -72.7531 61° Northeast 436 502 18,200 -1,550 Descending Boston Center
Thu 05:02:52 PM 42.6400 -72.6236 67° East 424 488 17,100 -1,550 Descending Boston Center
Thu 05:03:52 PM 42.6775 -72.4797 70° East 411 473 15,100 -1,850 Descending Boston Center
Thu 05:04:52 PM 42.7131 -72.3439 70° East 398 458 13,400 -1,750 Descending Boston Center
Thu 05:05:52 PM 42.7483 -72.2056 71° East 369 425 11,600 -1,650 Descending Boston Center
Thu 05:06:52 PM 42.7814 -72.1006 67° East 338 389 10,100 -1,500 Descending Boston Center
Thu 05:07:52 PM 42.8289 -71.9983 58° Northeast 302 348 8,600 -1,450 Descending Boston Center
Thu 05:08:52 PM 42.8556 -71.9075 68° East 283 326 7,200 -1,500 Descending Boston Center
Thu 05:09:52 PM 42.8486 -71.7917 95° East 275 316 5,600 -1,450 Descending Boston Center
Thu 05:10:52 PM 42.8419 -71.6981 96° East 275 316 4,300 -900 Descending Boston Center
Thu 05:11:52 PM 42.8350 -71.5964 95° East 261 300 3,800 -600 Descending Boston Center
Thu 05:12:52 PM 42.8261 -71.5286 100° East 220 253 3,100 -650 Descending Boston Center
Thu 05:13:52 PM 42.8108 -71.4522 105° East 192 221 2,500 -400 Descending Boston Center
Thu 05:14:52 PM 42.8228 -71.3956 74° East 171 197 2,300 -200 Descending Boston Center

Login

Don't have an account? Register now (free) for customized features, flight alerts, and more!